sensor_id;sensor_type;location;lat;lon;timestamp;temperature;humidity
26745;DHT22;14342;50.960;13.880;2022-08-04T00:00:11;26.60;60.00
26745;DHT22;14342;50.960;13.880;2022-08-04T00:01:15;26.60;60.10
26745;DHT22;14342;50.960;13.880;2022-08-04T00:02:20;26.60;60.10
26745;DHT22;14342;50.960;13.880;2022-08-04T00:03:23;26.60;60.10
26745;DHT22;14342;50.960;13.880;2022-08-04T00:04:28;26.50;60.00
26745;DHT22;14342;50.960;13.880;2022-08-04T00:05:34;26.50;59.90
26745;DHT22;14342;50.960;13.880;2022-08-04T00:06:39;26.50;60.20
26745;DHT22;14342;50.960;13.880;2022-08-04T00:07:47;26.50;60.70
26745;DHT22;14342;50.960;13.880;2022-08-04T00:08:52;26.40;60.30
26745;DHT22;14342;50.960;13.880;2022-08-04T00:09:56;26.40;60.30
26745;DHT22;14342;50.960;13.880;2022-08-04T00:10:59;26.40;60.50
26745;DHT22;14342;50.960;13.880;2022-08-04T00:12:00;26.40;60.20
26745;DHT22;14342;50.960;13.880;2022-08-04T00:13:02;26.40;60.40
26745;DHT22;14342;50.960;13.880;2022-08-04T00:14:05;26.40;60.70
26745;DHT22;14342;50.960;13.880;2022-08-04T00:15:10;26.40;60.70
26745;DHT22;14342;50.960;13.880;2022-08-04T00:16:11;26.40;60.90
26745;DHT22;14342;50.960;13.880;2022-08-04T00:17:13;26.40;61.10
26745;DHT22;14342;50.960;13.880;2022-08-04T00:18:15;26.30;61.30
26745;DHT22;14342;50.960;13.880;2022-08-04T00:19:21;26.30;61.50
26745;DHT22;14342;50.960;13.880;2022-08-04T00:20:22;26.30;61.20
26745;DHT22;14342;50.960;13.880;2022-08-04T00:21:25;26.20;62.30
26745;DHT22;14342;50.960;13.880;2022-08-04T00:22:27;26.20;61.50
26745;DHT22;14342;50.960;13.880;2022-08-04T00:23:29;26.20;61.80
26745;DHT22;14342;50.960;13.880;2022-08-04T00:24:30;26.10;61.90
26745;DHT22;14342;50.960;13.880;2022-08-04T00:25:32;26.10;61.80
26745;DHT22;14342;50.960;13.880;2022-08-04T00:26:32;26.10;61.90
26745;DHT22;14342;50.960;13.880;2022-08-04T00:27:34;26.10;61.90
26745;DHT22;14342;50.960;13.880;2022-08-04T00:28:35;26.10;62.20
26745;DHT22;14342;50.960;13.880;2022-08-04T00:29:38;26.00;61.90
26745;DHT22;14342;50.960;13.880;2022-08-04T00:30:40;26.00;61.80
26745;DHT22;14342;50.960;13.880;2022-08-04T00:31:42;26.10;61.90
26745;DHT22;14342;50.960;13.880;2022-08-04T00:32:42;26.10;62.10
26745;DHT22;14342;50.960;13.880;2022-08-04T00:33:45;26.00;62.30
26745;DHT22;14342;50.960;13.880;2022-08-04T00:34:45;25.90;62.40
26745;DHT22;14342;50.960;13.880;2022-08-04T00:35:48;25.90;62.40
26745;DHT22;14342;50.960;13.880;2022-08-04T00:36:49;25.90;62.20
26745;DHT22;14342;50.960;13.880;2022-08-04T00:37:51;26.00;62.20
26745;DHT22;14342;50.960;13.880;2022-08-04T00:38:52;25.90;62.80
26745;DHT22;14342;50.960;13.880;2022-08-04T00:39:54;25.80;63.00
26745;DHT22;14342;50.960;13.880;2022-08-04T00:40:58;25.80;63.10
26745;DHT22;14342;50.960;13.880;2022-08-04T00:42:10;25.80;62.70
26745;DHT22;14342;50.960;13.880;2022-08-04T00:43:14;25.70;63.20
26745;DHT22;14342;50.960;13.880;2022-08-04T00:44:22;25.70;63.30
26745;DHT22;14342;50.960;13.880;2022-08-04T00:45:37;25.70;63.20
26745;DHT22;14342;50.960;13.880;2022-08-04T00:46:48;25.70;63.30
26745;DHT22;14342;50.960;13.880;2022-08-04T00:47:55;25.70;63.50
26745;DHT22;14342;50.960;13.880;2022-08-04T00:49:02;25.60;63.70
26745;DHT22;14342;50.960;13.880;2022-08-04T00:50:09;25.60;63.70
26745;DHT22;14342;50.960;13.880;2022-08-04T00:51:14;25.50;64.10
26745;DHT22;14342;50.960;13.880;2022-08-04T00:52:17;25.50;64.40
26745;DHT22;14342;50.960;13.880;2022-08-04T00:53:22;25.50;64.00
26745;DHT22;14342;50.960;13.880;2022-08-04T00:54:31;25.50;63.80
26745;DHT22;14342;50.960;13.880;2022-08-04T00:55:46;25.50;63.70
26745;DHT22;14342;50.960;13.880;2022-08-04T00:56:59;25.60;63.60
26745;DHT22;14342;50.960;13.880;2022-08-04T00:58:14;25.60;63.70
26745;DHT22;14342;50.960;13.880;2022-08-04T00:59:26;25.60;63.60
26745;DHT22;14342;50.960;13.880;2022-08-04T01:00:38;25.60;63.90
26745;DHT22;14342;50.960;13.880;2022-08-04T01:01:43;25.60;63.50
26745;DHT22;14342;50.960;13.880;2022-08-04T01:03:01;25.60;63.50
26745;DHT22;14342;50.960;13.880;2022-08-04T01:04:09;25.60;63.40
26745;DHT22;14342;50.960;13.880;2022-08-04T01:05:19;25.70;63.60
26745;DHT22;14342;50.960;13.880;2022-08-04T01:06:23;25.70;63.80
26745;DHT22;14342;50.960;13.880;2022-08-04T01:07:30;25.70;63.90
26745;DHT22;14342;50.960;13.880;2022-08-04T01:08:44;25.70;63.90
26745;DHT22;14342;50.960;13.880;2022-08-04T01:09:50;25.70;63.70
26745;DHT22;14342;50.960;13.880;2022-08-04T01:10:58;25.70;63.70
26745;DHT22;14342;50.960;13.880;2022-08-04T01:12:07;25.60;64.30
26745;DHT22;14342;50.960;13.880;2022-08-04T01:14:35;25.60;64.10
26745;DHT22;14342;50.960;13.880;2022-08-04T01:15:44;25.60;64.40
26745;DHT22;14342;50.960;13.880;2022-08-04T01:16:47;25.60;64.00
26745;DHT22;14342;50.960;13.880;2022-08-04T01:17:53;25.60;64.10
26745;DHT22;14342;50.960;13.880;2022-08-04T01:18:57;25.60;64.10
26745;DHT22;14342;50.960;13.880;2022-08-04T01:20:00;25.60;63.90
26745;DHT22;14342;50.960;13.880;2022-08-04T01:21:05;25.20;63.90
26745;DHT22;14342;50.960;13.880;2022-08-04T01:22:16;25.60;64.10
26745;DHT22;14342;50.960;13.880;2022-08-04T01:23:26;25.60;64.00
26745;DHT22;14342;50.960;13.880;2022-08-04T01:24:44;25.60;64.00
26745;DHT22;14342;50.960;13.880;2022-08-04T01:25:59;25.60;64.50
26745;DHT22;14342;50.960;13.880;2022-08-04T01:27:02;25.60;64.40
26745;DHT22;14342;50.960;13.880;2022-08-04T01:28:14;25.60;64.30
26745;DHT22;14342;50.960;13.880;2022-08-04T01:29:27;25.50;65.10
26745;DHT22;14342;50.960;13.880;2022-08-04T01:30:28;25.50;64.60
26745;DHT22;14342;50.960;13.880;2022-08-04T01:31:31;25.50;64.40
26745;DHT22;14342;50.960;13.880;2022-08-04T01:32:35;25.50;65.30
26745;DHT22;14342;50.960;13.880;2022-08-04T01:33:38;25.40;65.00
26745;DHT22;14342;50.960;13.880;2022-08-04T01:34:41;25.40;65.20
26745;DHT22;14342;50.960;13.880;2022-08-04T01:35:45;25.30;65.40
26745;DHT22;14342;50.960;13.880;2022-08-04T01:36:49;25.30;65.50
26745;DHT22;14342;50.960;13.880;2022-08-04T01:37:56;25.30;65.30
26745;DHT22;14342;50.960;13.880;2022-08-04T01:39:00;25.30;65.30
26745;DHT22;14342;50.960;13.880;2022-08-04T01:40:23;25.30;65.70
26745;DHT22;14342;50.960;13.880;2022-08-04T01:41:25;25.30;65.70
26745;DHT22;14342;50.960;13.880;2022-08-04T01:42:27;25.30;65.80
26745;DHT22;14342;50.960;13.880;2022-08-04T01:43:31;25.30;66.30
26745;DHT22;14342;50.960;13.880;2022-08-04T01:44:35;25.20;65.70
26745;DHT22;14342;50.960;13.880;2022-08-04T01:45:37;25.20;65.90
26745;DHT22;14342;50.960;13.880;2022-08-04T01:46:38;25.20;65.70
26745;DHT22;14342;50.960;13.880;2022-08-04T01:47:40;25.10;66.60
26745;DHT22;14342;50.960;13.880;2022-08-04T01:48:43;25.10;66.10
26745;DHT22;14342;50.960;13.880;2022-08-04T01:49:45;25.10;66.10
26745;DHT22;14342;50.960;13.880;2022-08-04T01:50:49;25.10;66.10
26745;DHT22;14342;50.960;13.880;2022-08-04T01:51:51;25.10;66.20
26745;DHT22;14342;50.960;13.880;2022-08-04T01:52:53;25.20;66.00
26745;DHT22;14342;50.960;13.880;2022-08-04T01:53:54;25.20;66.00
26745;DHT22;14342;50.960;13.880;2022-08-04T01:54:56;25.20;66.20
26745;DHT22;14342;50.960;13.880;2022-08-04T01:55:56;25.20;66.10
26745;DHT22;14342;50.960;13.880;2022-08-04T01:56:58;25.20;66.50
26745;DHT22;14342;50.960;13.880;2022-08-04T01:58:00;25.10;67.20
26745;DHT22;14342;50.960;13.880;2022-08-04T01:59:01;25.10;66.70
26745;DHT22;14342;50.960;13.880;2022-08-04T02:00:04;25.00;67.10
26745;DHT22;14342;50.960;13.880;2022-08-04T02:01:07;25.00;67.10
26745;DHT22;14342;50.960;13.880;2022-08-04T02:02:08;24.90;67.60
26745;DHT22;14342;50.960;13.880;2022-08-04T02:03:10;24.90;67.80
26745;DHT22;14342;50.960;13.880;2022-08-04T02:04:13;24.80;68.00
26745;DHT22;14342;50.960;13.880;2022-08-04T02:05:16;24.70;68.10
26745;DHT22;14342;50.960;13.880;2022-08-04T02:06:17;24.60;68.50
26745;DHT22;14342;50.960;13.880;2022-08-04T02:08:46;24.50;69.00
26745;DHT22;14342;50.960;13.880;2022-08-04T02:09:51;24.50;69.20
26745;DHT22;14342;50.960;13.880;2022-08-04T02:10:56;24.50;69.00
26745;DHT22;14342;50.960;13.880;2022-08-04T02:12:02;24.50;68.90
26745;DHT22;14342;50.960;13.880;2022-08-04T02:13:07;24.50;68.90
26745;DHT22;14342;50.960;13.880;2022-08-04T02:14:12;24.50;69.00
26745;DHT22;14342;50.960;13.880;2022-08-04T02:15:40;24.50;69.10
26745;DHT22;14342;50.960;13.880;2022-08-04T02:16:43;24.50;69.20
26745;DHT22;14342;50.960;13.880;2022-08-04T02:17:57;24.50;69.20
26745;DHT22;14342;50.960;13.880;2022-08-04T02:19:01;24.50;69.50
26745;DHT22;14342;50.960;13.880;2022-08-04T02:20:03;24.40;69.40
26745;DHT22;14342;50.960;13.880;2022-08-04T02:21:06;24.40;69.80
26745;DHT22;14342;50.960;13.880;2022-08-04T02:22:08;24.20;70.00
26745;DHT22;14342;50.960;13.880;2022-08-04T02:23:12;24.20;70.40
26745;DHT22;14342;50.960;13.880;2022-08-04T02:24:15;24.20;70.50
26745;DHT22;14342;50.960;13.880;2022-08-04T02:25:23;24.10;70.50
26745;DHT22;14342;50.960;13.880;2022-08-04T02:26:25;24.20;70.70
26745;DHT22;14342;50.960;13.880;2022-08-04T02:27:27;24.20;70.60
26745;DHT22;14342;50.960;13.880;2022-08-04T02:28:32;24.20;70.70
26745;DHT22;14342;50.960;13.880;2022-08-04T02:29:34;24.10;70.80
26745;DHT22;14342;50.960;13.880;2022-08-04T02:30:42;24.20;70.80
26745;DHT22;14342;50.960;13.880;2022-08-04T02:31:47;24.20;70.80
26745;DHT22;14342;50.960;13.880;2022-08-04T02:32:48;24.30;70.80
26745;DHT22;14342;50.960;13.880;2022-08-04T02:33:55;24.20;70.90
26745;DHT22;14342;50.960;13.880;2022-08-04T02:34:59;24.20;70.90
26745;DHT22;14342;50.960;13.880;2022-08-04T02:36:02;24.20;71.00
26745;DHT22;14342;50.960;13.880;2022-08-04T02:37:04;24.20;71.10
26745;DHT22;14342;50.960;13.880;2022-08-04T02:38:11;24.20;71.30
26745;DHT22;14342;50.960;13.880;2022-08-04T02:39:13;24.30;70.90
26745;DHT22;14342;50.960;13.880;2022-08-04T02:40:19;24.30;70.90
26745;DHT22;14342;50.960;13.880;2022-08-04T02:41:21;24.30;70.70
26745;DHT22;14342;50.960;13.880;2022-08-04T02:42:22;24.30;70.60
26745;DHT22;14342;50.960;13.880;2022-08-04T02:43:24;24.50;70.90
26745;DHT22;14342;50.960;13.880;2022-08-04T02:44:25;24.40;70.70
26745;DHT22;14342;50.960;13.880;2022-08-04T02:45:28;24.40;70.90
26745;DHT22;14342;50.960;13.880;2022-08-04T02:46:33;24.30;71.00
26745;DHT22;14342;50.960;13.880;2022-08-04T02:47:35;24.40;71.20
26745;DHT22;14342;50.960;13.880;2022-08-04T02:48:36;24.20;71.30
26745;DHT22;14342;50.960;13.880;2022-08-04T02:49:38;24.20;71.40
26745;DHT22;14342;50.960;13.880;2022-08-04T02:50:39;24.20;71.60
26745;DHT22;14342;50.960;13.880;2022-08-04T02:51:41;24.20;71.60
26745;DHT22;14342;50.960;13.880;2022-08-04T02:52:42;24.10;71.60
26745;DHT22;14342;50.960;13.880;2022-08-04T02:53:45;24.10;71.90
26745;DHT22;14342;50.960;13.880;2022-08-04T02:54:47;24.00;72.00
26745;DHT22;14342;50.960;13.880;2022-08-04T02:55:49;24.00;72.30
26745;DHT22;14342;50.960;13.880;2022-08-04T02:56:51;23.90;72.60
26745;DHT22;14342;50.960;13.880;2022-08-04T02:57:53;23.90;72.60
26745;DHT22;14342;50.960;13.880;2022-08-04T02:58:57;23.80;72.80
26745;DHT22;14342;50.960;13.880;2022-08-04T03:00:03;23.90;73.00
26745;DHT22;14342;50.960;13.880;2022-08-04T03:01:05;23.80;72.80
26745;DHT22;14342;50.960;13.880;2022-08-04T03:02:08;23.90;73.00
26745;DHT22;14342;50.960;13.880;2022-08-04T03:03:12;23.90;73.10
26745;DHT22;14342;50.960;13.880;2022-08-04T03:04:21;23.90;73.80
26745;DHT22;14342;50.960;13.880;2022-08-04T03:05:26;23.90;73.30
26745;DHT22;14342;50.960;13.880;2022-08-04T03:06:50;24.00;73.20
26745;DHT22;14342;50.960;13.880;2022-08-04T03:07:57;23.90;73.30
26745;DHT22;14342;50.960;13.880;2022-08-04T03:09:05;23.90;73.40
26745;DHT22;14342;50.960;13.880;2022-08-04T03:10:24;23.90;73.70
26745;DHT22;14342;50.960;13.880;2022-08-04T03:11:33;23.80;73.60
26745;DHT22;14342;50.960;13.880;2022-08-04T03:14:03;23.70;73.60
26745;DHT22;14342;50.960;13.880;2022-08-04T03:15:17;23.80;73.90
26745;DHT22;14342;50.960;13.880;2022-08-04T03:16:41;23.70;74.10
26745;DHT22;14342;50.960;13.880;2022-08-04T03:17:55;23.80;74.10
26745;DHT22;14342;50.960;13.880;2022-08-04T03:20:41;23.80;73.90
26745;DHT22;14342;50.960;13.880;2022-08-04T03:26:00;23.60;75.10
26745;DHT22;14342;50.960;13.880;2022-08-04T03:27:10;23.60;75.30
26745;DHT22;14342;50.960;13.880;2022-08-04T03:29:40;23.60;75.30
26745;DHT22;14342;50.960;13.880;2022-08-04T03:30:52;23.70;75.40
26745;DHT22;14342;50.960;13.880;2022-08-04T03:33:27;23.70;75.60
26745;DHT22;14342;50.960;13.880;2022-08-04T03:34:42;23.60;75.70
26745;DHT22;14342;50.960;13.880;2022-08-04T03:35:57;23.60;75.90
26745;DHT22;14342;50.960;13.880;2022-08-04T03:37:18;23.60;75.90
26745;DHT22;14342;50.960;13.880;2022-08-04T03:38:29;23.60;76.00
26745;DHT22;14342;50.960;13.880;2022-08-04T03:39:50;23.70;75.90
26745;DHT22;14342;50.960;13.880;2022-08-04T03:42:33;23.60;76.40
26745;DHT22;14342;50.960;13.880;2022-08-04T03:43:44;23.60;76.30
26745;DHT22;14342;50.960;13.880;2022-08-04T03:47:32;23.70;76.50
26745;DHT22;14342;50.960;13.880;2022-08-04T03:48:52;23.70;76.00
26745;DHT22;14342;50.960;13.880;2022-08-04T03:51:35;23.80;76.10
26745;DHT22;14342;50.960;13.880;2022-08-04T03:54:31;23.80;76.10
26745;DHT22;14342;50.960;13.880;2022-08-04T03:55:42;23.80;76.00
26745;DHT22;14342;50.960;13.880;2022-08-04T03:56:50;23.90;75.90
26745;DHT22;14342;50.960;13.880;2022-08-04T03:59:23;23.80;76.30
26745;DHT22;14342;50.960;13.880;2022-08-04T04:00:29;23.60;76.70
26745;DHT22;14342;50.960;13.880;2022-08-04T04:01:39;23.60;76.70
26745;DHT22;14342;50.960;13.880;2022-08-04T04:04:15;23.50;77.40
26745;DHT22;14342;50.960;13.880;2022-08-04T04:05:38;23.50;77.70
26745;DHT22;14342;50.960;13.880;2022-08-04T04:06:48;23.50;78.10
26745;DHT22;14342;50.960;13.880;2022-08-04T04:08:04;23.50;78.20
26745;DHT22;14342;50.960;13.880;2022-08-04T04:09:17;23.50;78.30
26745;DHT22;14342;50.960;13.880;2022-08-04T04:10:24;23.40;78.80
26745;DHT22;14342;50.960;13.880;2022-08-04T04:11:40;23.40;78.70
26745;DHT22;14342;50.960;13.880;2022-08-04T04:12:59;23.70;79.40
26745;DHT22;14342;50.960;13.880;2022-08-04T04:14:17;23.50;78.60
26745;DHT22;14342;50.960;13.880;2022-08-04T04:15:30;23.20;78.10
26745;DHT22;14342;50.960;13.880;2022-08-04T04:16:43;23.60;78.20
26745;DHT22;14342;50.960;13.880;2022-08-04T04:17:56;23.70;78.50
26745;DHT22;14342;50.960;13.880;2022-08-04T04:20:43;23.60;78.70
26745;DHT22;14342;50.960;13.880;2022-08-04T04:21:55;23.60;78.60
26745;DHT22;14342;50.960;13.880;2022-08-04T04:23:09;23.60;78.80
26745;DHT22;14342;50.960;13.880;2022-08-04T04:24:27;23.70;78.70
26745;DHT22;14342;50.960;13.880;2022-08-04T04:25:34;23.70;78.70
26745;DHT22;14342;50.960;13.880;2022-08-04T04:28:00;23.70;79.00
26745;DHT22;14342;50.960;13.880;2022-08-04T04:29:13;23.70;78.60
26745;DHT22;14342;50.960;13.880;2022-08-04T04:30:18;23.80;78.90
26745;DHT22;14342;50.960;13.880;2022-08-04T04:31:32;23.90;78.70
26745;DHT22;14342;50.960;13.880;2022-08-04T04:32:41;23.90;78.80
26745;DHT22;14342;50.960;13.880;2022-08-04T04:33:46;24.00;78.90
26745;DHT22;14342;50.960;13.880;2022-08-04T04:34:55;24.00;78.50
26745;DHT22;14342;50.960;13.880;2022-08-04T04:36:07;24.00;78.20
26745;DHT22;14342;50.960;13.880;2022-08-04T04:37:18;24.00;77.90
26745;DHT22;14342;50.960;13.880;2022-08-04T04:38:25;24.10;78.00
26745;DHT22;14342;50.960;13.880;2022-08-04T04:39:31;24.00;78.30
26745;DHT22;14342;50.960;13.880;2022-08-04T04:40:33;24.10;78.40
26745;DHT22;14342;50.960;13.880;2022-08-04T04:41:43;24.10;78.30
26745;DHT22;14342;50.960;13.880;2022-08-04T04:43:01;24.00;78.50
26745;DHT22;14342;50.960;13.880;2022-08-04T04:44:14;24.00;78.60
26745;DHT22;14342;50.960;13.880;2022-08-04T04:45:23;24.00;79.90
26745;DHT22;14342;50.960;13.880;2022-08-04T04:46:31;24.00;79.20
26745;DHT22;14342;50.960;13.880;2022-08-04T04:47:36;24.00;79.50
26745;DHT22;14342;50.960;13.880;2022-08-04T04:48:41;23.90;79.40
26745;DHT22;14342;50.960;13.880;2022-08-04T04:49:48;24.00;79.80
26745;DHT22;14342;50.960;13.880;2022-08-04T04:50:54;23.90;79.60
26745;DHT22;14342;50.960;13.880;2022-08-04T04:52:02;23.90;79.80
26745;DHT22;14342;50.960;13.880;2022-08-04T04:53:08;23.90;80.30
26745;DHT22;14342;50.960;13.880;2022-08-04T04:54:13;23.80;80.80
26745;DHT22;14342;50.960;13.880;2022-08-04T04:55:18;23.80;80.60
26745;DHT22;14342;50.960;13.880;2022-08-04T04:56:22;23.80;80.40
26745;DHT22;14342;50.960;13.880;2022-08-04T04:57:25;23.90;80.60
26745;DHT22;14342;50.960;13.880;2022-08-04T04:58:29;23.70;81.40
26745;DHT22;14342;50.960;13.880;2022-08-04T04:59:33;23.70;81.80
26745;DHT22;14342;50.960;13.880;2022-08-04T05:00:37;23.70;81.90
26745;DHT22;14342;50.960;13.880;2022-08-04T05:01:51;23.70;82.40
26745;DHT22;14342;50.960;13.880;2022-08-04T05:03:04;23.70;82.40
26745;DHT22;14342;50.960;13.880;2022-08-04T05:04:27;23.80;82.20
26745;DHT22;14342;50.960;13.880;2022-08-04T05:06:52;23.80;82.30
26745;DHT22;14342;50.960;13.880;2022-08-04T05:08:08;23.70;83.60
26745;DHT22;14342;50.960;13.880;2022-08-04T05:09:21;23.80;82.40
26745;DHT22;14342;50.960;13.880;2022-08-04T05:10:32;23.90;82.20
26745;DHT22;14342;50.960;13.880;2022-08-04T05:11:52;23.80;82.50
26745;DHT22;14342;50.960;13.880;2022-08-04T05:13:02;23.90;82.30
26745;DHT22;14342;50.960;13.880;2022-08-04T05:14:07;23.90;82.40
26745;DHT22;14342;50.960;13.880;2022-08-04T05:15:09;24.20;82.70
26745;DHT22;14342;50.960;13.880;2022-08-04T05:16:14;24.00;82.60
26745;DHT22;14342;50.960;13.880;2022-08-04T05:17:17;24.10;83.30
26745;DHT22;14342;50.960;13.880;2022-08-04T05:18:21;23.90;83.20
26745;DHT22;14342;50.960;13.880;2022-08-04T05:19:24;23.90;83.30
26745;DHT22;14342;50.960;13.880;2022-08-04T05:20:28;24.00;83.00
26745;DHT22;14342;50.960;13.880;2022-08-04T05:21:33;24.00;83.00
26745;DHT22;14342;50.960;13.880;2022-08-04T05:22:38;24.10;83.00
26745;DHT22;14342;50.960;13.880;2022-08-04T05:23:43;24.20;82.80
26745;DHT22;14342;50.960;13.880;2022-08-04T05:24:48;24.20;82.70
26745;DHT22;14342;50.960;13.880;2022-08-04T05:25:52;24.20;82.50
26745;DHT22;14342;50.960;13.880;2022-08-04T05:26:55;24.20;82.60
26745;DHT22;14342;50.960;13.880;2022-08-04T05:28:01;24.20;82.80
26745;DHT22;14342;50.960;13.880;2022-08-04T05:29:05;24.10;83.10
26745;DHT22;14342;50.960;13.880;2022-08-04T05:30:07;24.10;83.40
26745;DHT22;14342;50.960;13.880;2022-08-04T05:31:09;24.10;83.50
26745;DHT22;14342;50.960;13.880;2022-08-04T05:32:12;24.10;83.80
26745;DHT22;14342;50.960;13.880;2022-08-04T05:33:15;24.10;83.80
26745;DHT22;14342;50.960;13.880;2022-08-04T05:34:19;24.10;83.60
26745;DHT22;14342;50.960;13.880;2022-08-04T05:35:25;24.20;83.60
26745;DHT22;14342;50.960;13.880;2022-08-04T05:36:29;24.20;83.60
26745;DHT22;14342;50.960;13.880;2022-08-04T05:37:33;24.20;83.90
26745;DHT22;14342;50.960;13.880;2022-08-04T05:38:35;24.20;84.30
26745;DHT22;14342;50.960;13.880;2022-08-04T05:39:41;24.20;84.20
26745;DHT22;14342;50.960;13.880;2022-08-04T05:40:42;24.20;84.00
26745;DHT22;14342;50.960;13.880;2022-08-04T05:41:44;24.30;84.10
26745;DHT22;14342;50.960;13.880;2022-08-04T05:42:44;24.30;84.00
26745;DHT22;14342;50.960;13.880;2022-08-04T05:43:47;24.30;84.20
26745;DHT22;14342;50.960;13.880;2022-08-04T05:44:48;24.40;84.00
26745;DHT22;14342;50.960;13.880;2022-08-04T05:45:50;24.40;83.60
26745;DHT22;14342;50.960;13.880;2022-08-04T05:46:54;24.50;83.40
26745;DHT22;14342;50.960;13.880;2022-08-04T05:47:56;24.50;83.30
26745;DHT22;14342;50.960;13.880;2022-08-04T05:48:56;24.60;83.50
26745;DHT22;14342;50.960;13.880;2022-08-04T05:49:58;24.60;83.50
26745;DHT22;14342;50.960;13.880;2022-08-04T05:50:59;24.70;83.40
26745;DHT22;14342;50.960;13.880;2022-08-04T05:52:02;24.70;83.30
26745;DHT22;14342;50.960;13.880;2022-08-04T05:53:03;24.70;83.30
26745;DHT22;14342;50.960;13.880;2022-08-04T05:54:05;24.80;83.10
26745;DHT22;14342;50.960;13.880;2022-08-04T05:55:08;24.80;82.70
26745;DHT22;14342;50.960;13.880;2022-08-04T05:56:12;24.90;82.60
26745;DHT22;14342;50.960;13.880;2022-08-04T05:57:14;24.90;82.20
26745;DHT22;14342;50.960;13.880;2022-08-04T05:58:16;25.00;82.70
26745;DHT22;14342;50.960;13.880;2022-08-04T05:59:17;25.00;82.50
26745;DHT22;14342;50.960;13.880;2022-08-04T06:00:19;25.10;82.20
26745;DHT22;14342;50.960;13.880;2022-08-04T06:01:21;25.20;81.90
26745;DHT22;14342;50.960;13.880;2022-08-04T06:02:23;25.20;82.10
26745;DHT22;14342;50.960;13.880;2022-08-04T06:03:24;25.30;81.50
26745;DHT22;14342;50.960;13.880;2022-08-04T06:04:32;25.30;81.40
26745;DHT22;14342;50.960;13.880;2022-08-04T06:05:34;25.30;80.90
26745;DHT22;14342;50.960;13.880;2022-08-04T06:06:35;25.30;81.00
26745;DHT22;14342;50.960;13.880;2022-08-04T06:07:36;25.30;80.60
26745;DHT22;14342;50.960;13.880;2022-08-04T06:08:38;25.40;80.50
26745;DHT22;14342;50.960;13.880;2022-08-04T06:09:39;25.50;80.60
26745;DHT22;14342;50.960;13.880;2022-08-04T06:10:42;25.50;80.80
26745;DHT22;14342;50.960;13.880;2022-08-04T06:11:43;25.60;80.50
26745;DHT22;14342;50.960;13.880;2022-08-04T06:12:48;25.70;80.40
26745;DHT22;14342;50.960;13.880;2022-08-04T06:13:50;25.80;79.80
26745;DHT22;14342;50.960;13.880;2022-08-04T06:14:52;25.80;79.60
26745;DHT22;14342;50.960;13.880;2022-08-04T06:15:53;25.90;79.50
26745;DHT22;14342;50.960;13.880;2022-08-04T06:16:56;26.10;79.40
26745;DHT22;14342;50.960;13.880;2022-08-04T06:18:02;26.00;78.80
26745;DHT22;14342;50.960;13.880;2022-08-04T06:19:07;26.20;78.80
26745;DHT22;14342;50.960;13.880;2022-08-04T06:20:08;26.30;78.30
26745;DHT22;14342;50.960;13.880;2022-08-04T06:21:10;26.30;78.20
26745;DHT22;14342;50.960;13.880;2022-08-04T06:22:12;26.50;78.20
26745;DHT22;14342;50.960;13.880;2022-08-04T06:23:14;26.50;77.70
26745;DHT22;14342;50.960;13.880;2022-08-04T06:24:17;26.60;78.00
26745;DHT22;14342;50.960;13.880;2022-08-04T06:25:19;26.60;77.70
26745;DHT22;14342;50.960;13.880;2022-08-04T06:26:23;26.60;77.60
26745;DHT22;14342;50.960;13.880;2022-08-04T06:27:24;26.70;77.20
26745;DHT22;14342;50.960;13.880;2022-08-04T06:28:26;26.60;76.40
26745;DHT22;14342;50.960;13.880;2022-08-04T06:29:28;26.70;76.80
26745;DHT22;14342;50.960;13.880;2022-08-04T06:30:35;26.70;77.40
26745;DHT22;14342;50.960;13.880;2022-08-04T06:31:36;26.80;76.70
26745;DHT22;14342;50.960;13.880;2022-08-04T06:32:47;26.90;76.80
26745;DHT22;14342;50.960;13.880;2022-08-04T06:33:49;27.00;76.80
26745;DHT22;14342;50.960;13.880;2022-08-04T06:34:52;27.00;76.50
26745;DHT22;14342;50.960;13.880;2022-08-04T06:35:53;27.10;76.20
26745;DHT22;14342;50.960;13.880;2022-08-04T06:36:55;27.20;75.70
26745;DHT22;14342;50.960;13.880;2022-08-04T06:37:57;27.30;75.70
26745;DHT22;14342;50.960;13.880;2022-08-04T06:38:59;27.40;74.60
26745;DHT22;14342;50.960;13.880;2022-08-04T06:40:00;27.60;74.40
26745;DHT22;14342;50.960;13.880;2022-08-04T06:41:03;27.60;73.40
26745;DHT22;14342;50.960;13.880;2022-08-04T06:42:09;27.60;73.40
26745;DHT22;14342;50.960;13.880;2022-08-04T06:43:11;27.70;74.20
26745;DHT22;14342;50.960;13.880;2022-08-04T06:44:13;27.70;73.50
26745;DHT22;14342;50.960;13.880;2022-08-04T06:45:14;27.80;73.90
26745;DHT22;14342;50.960;13.880;2022-08-04T06:46:15;27.90;73.50
26745;DHT22;14342;50.960;13.880;2022-08-04T06:47:16;28.00;73.20
26745;DHT22;14342;50.960;13.880;2022-08-04T06:48:20;27.90;72.50
26745;DHT22;14342;50.960;13.880;2022-08-04T06:49:21;28.00;72.10
26745;DHT22;14342;50.960;13.880;2022-08-04T06:50:24;28.10;72.20
26745;DHT22;14342;50.960;13.880;2022-08-04T06:51:25;28.10;71.80
26745;DHT22;14342;50.960;13.880;2022-08-04T06:52:28;28.00;72.00
26745;DHT22;14342;50.960;13.880;2022-08-04T06:53:29;28.10;72.10
26745;DHT22;14342;50.960;13.880;2022-08-04T06:54:31;28.10;72.10
26745;DHT22;14342;50.960;13.880;2022-08-04T06:55:32;28.20;72.00
26745;DHT22;14342;50.960;13.880;2022-08-04T06:56:34;28.20;71.40
26745;DHT22;14342;50.960;13.880;2022-08-04T06:57:37;28.20;71.80
26745;DHT22;14342;50.960;13.880;2022-08-04T06:58:40;28.30;71.10
26745;DHT22;14342;50.960;13.880;2022-08-04T06:59:41;28.40;71.50
26745;DHT22;14342;50.960;13.880;2022-08-04T07:00:44;28.50;70.50
26745;DHT22;14342;50.960;13.880;2022-08-04T07:01:46;28.50;71.10
26745;DHT22;14342;50.960;13.880;2022-08-04T07:02:49;28.60;70.70
26745;DHT22;14342;50.960;13.880;2022-08-04T07:03:51;28.70;70.80
26745;DHT22;14342;50.960;13.880;2022-08-04T07:04:52;28.90;70.40
26745;DHT22;14342;50.960;13.880;2022-08-04T07:05:53;28.90;69.50
26745;DHT22;14342;50.960;13.880;2022-08-04T07:06:54;29.00;69.70
26745;DHT22;14342;50.960;13.880;2022-08-04T07:07:56;29.00;70.10
26745;DHT22;14342;50.960;13.880;2022-08-04T07:08:57;29.00;69.60
26745;DHT22;14342;50.960;13.880;2022-08-04T07:09:59;29.00;69.90
26745;DHT22;14342;50.960;13.880;2022-08-04T07:11:00;29.00;69.70
26745;DHT22;14342;50.960;13.880;2022-08-04T07:12:02;29.20;68.50
26745;DHT22;14342;50.960;13.880;2022-08-04T07:13:04;29.20;68.40
26745;DHT22;14342;50.960;13.880;2022-08-04T07:14:06;29.30;68.60